Time;durP1;ratioP1;P1;durP2;ratioP2;P2;SDS_P1;SDS_P2;PMS_P1;PMS_P2;Temp;Humidity;BMP_temperature;BMP_pressure;BME280_temperature;BME280_humidity;BME280_pressure;Samples;Min_cycle;Max_cycle;Signal;HPM_P1;HPM_P2
2022/05/15 00:00:37;;;;;;;4.97;3.37;;;19.30;61.80;;;;;;5012267;28;20451;-68
2022/05/15 00:00:37;;;;;;;4.07;3.50;;;19.30;61.90;;;;;;5024278;28;20459;-68
2022/05/15 00:03:12;;;;;;;3.80;3.50;;;19.30;61.90;;;;;;5028403;28;21190;-68
2022/05/15 00:05:38;;;;;;;3.80;3.50;;;19.20;62.00;;;;;;5017243;28;20463;-68
2022/05/15 00:08:05;;;;;;;4.90;4.47;;;19.20;62.20;;;;;;5018768;28;20556;-68
2022/05/15 00:10:31;;;;;;;4.97;3.90;;;19.20;62.30;;;;;;5030337;28;20467;-68
2022/05/15 00:12:57;;;;;;;4.67;4.00;;;19.20;62.50;;;;;;5029969;28;20455;-68
2022/05/15 00:15:22;;;;;;;4.50;4.03;;;19.10;62.70;;;;;;5028970;28;20490;-67
2022/05/15 00:17:48;;;;;;;3.20;3.00;;;19.00;63.00;;;;;;5011080;28;20259;-68
2022/05/15 00:20:14;;;;;;;4.57;3.90;;;19.00;63.50;;;;;;5030244;28;20224;-68
2022/05/15 00:22:40;;;;;;;3.90;3.57;;;19.00;63.60;;;;;;5030756;28;20220;-67
2022/05/15 00:25:08;;;;;;;7.40;4.30;;;19.00;63.80;;;;;;5027485;28;20459;-70
2022/05/15 00:27:33;;;;;;;4.60;3.50;;;19.00;63.50;;;;;;5025582;28;20822;-68
2022/05/15 00:29:59;;;;;;;4.30;4.00;;;19.00;63.30;;;;;;5025556;28;20459;-67
2022/05/15 00:32:25;;;;;;;4.33;3.53;;;18.90;63.40;;;;;;5013783;28;20682;-68
2022/05/15 00:34:51;;;;;;;4.37;3.47;;;18.90;63.60;;;;;;5027286;28;20459;-67
2022/05/15 00:37:16;;;;;;;4.67;4.13;;;18.90;63.30;;;;;;5005432;28;20612;-68
2022/05/15 00:39:42;;;;;;;4.73;4.33;;;18.90;63.20;;;;;;5020091;28;20219;-68
2022/05/15 00:42:11;;;;;;;4.53;4.13;;;18.90;63.20;;;;;;5003597;28;20209;-67
2022/05/15 00:44:37;;;;;;;6.17;3.70;;;18.90;63.60;;;;;;5019737;28;20216;-68
2022/05/15 00:47:04;;;;;;;4.17;3.83;;;18.80;63.80;;;;;;5024314;28;20490;-65
2022/05/15 00:49:32;;;;;;;6.00;3.87;;;18.80;63.80;;;;;;5022518;28;20825;-69
2022/05/15 00:52:03;;;;;;;4.67;4.27;;;18.80;63.80;;;;;;5020095;28;20463;-69
2022/05/15 00:54:35;;;;;;;4.40;4.00;;;18.70;64.00;;;;;;5025101;28;20535;-71
2022/05/15 00:57:07;;;;;;;4.60;4.07;;;18.70;64.40;;;;;;5028401;28;20458;-68
2022/05/15 00:59:44;;;;;;;4.40;4.00;;;18.70;64.70;;;;;;5025528;28;20510;-68
2022/05/15 01:02:11;;;;;;;4.47;4.07;;;18.70;64.60;;;;;;5007809;28;20467;-66
2022/05/15 01:04:38;;;;;;;5.60;4.33;;;18.60;64.30;;;;;;5028106;28;20876;-66
2022/05/15 01:07:04;;;;;;;4.63;4.10;;;18.60;64.50;;;;;;5024800;28;20466;-67
2022/05/15 01:09:31;;;;;;;6.87;3.57;;;18.60;64.60;;;;;;5008855;28;20220;-68
2022/05/15 01:12:00;;;;;;;4.57;4.17;;;18.60;65.00;;;;;;5006014;28;20464;-68
2022/05/15 01:14:26;;;;;;;6.50;4.57;;;18.50;65.10;;;;;;5023838;28;20459;-68
2022/05/15 01:16:51;;;;;;;4.60;4.20;;;18.50;65.00;;;;;;5015315;28;20462;-68
2022/05/15 01:19:31;;;;;;;5.67;3.80;;;18.30;66.10;;;;;;5023465;28;20683;-71
2022/05/15 01:21:58;;;;;;;4.30;4.00;;;18.30;66.30;;;;;;5029051;28;20490;-68
2022/05/15 01:24:25;;;;;;;5.57;3.87;;;18.30;66.20;;;;;;5028055;28;20505;-68
2022/05/15 01:26:52;;;;;;;5.43;4.53;;;18.30;66.10;;;;;;5027145;28;20460;-69
2022/05/15 01:29:18;;;;;;;4.50;4.10;;;18.20;66.60;;;;;;5025684;28;20458;-68
2022/05/15 01:31:48;;;;;;;4.87;4.20;;;18.20;66.50;;;;;;5028034;28;20451;-67
2022/05/15 01:34:14;;;;;;;6.03;4.27;;;18.20;66.90;;;;;;5026386;28;20921;-68
2022/05/15 01:36:40;;;;;;;4.17;3.87;;;18.20;66.50;;;;;;5024944;28;20518;-68
2022/05/15 01:39:06;;;;;;;4.97;4.57;;;18.20;66.60;;;;;;5022972;28;20235;-69
2022/05/15 01:41:33;;;;;;;5.60;3.90;;;18.10;66.80;;;;;;5012589;28;20728;-68
2022/05/15 01:43:59;;;;;;;4.10;3.70;;;18.10;66.80;;;;;;5024625;28;20452;-71
2022/05/15 01:46:28;;;;;;;8.50;4.70;;;18.10;66.80;;;;;;5022666;28;20987;-67
2022/05/15 01:48:55;;;;;;;5.63;4.43;;;18.00;66.90;;;;;;5023066;28;20447;-69
2022/05/15 01:51:23;;;;;;;4.47;4.17;;;18.00;67.10;;;;;;5021212;28;20452;-67
2022/05/15 01:53:49;;;;;;;7.97;4.73;;;18.00;66.80;;;;;;5011000;28;20483;-68
2022/05/15 01:56:15;;;;;;;6.00;4.33;;;18.00;67.10;;;;;;5026333;28;20475;-69
2022/05/15 01:58:41;;;;;;;4.60;4.20;;;18.00;67.30;;;;;;5013921;28;20471;-68
2022/05/15 02:01:07;;;;;;;4.77;4.37;;;17.90;67.10;;;;;;5026481;28;20228;-68
2022/05/15 02:03:34;;;;;;;4.60;4.20;;;17.90;67.40;;;;;;5027536;28;20209;-72
2022/05/15 02:06:01;;;;;;;4.10;3.70;;;17.90;67.50;;;;;;5030742;28;20444;-68
2022/05/15 02:08:33;;;;;;;8.63;4.50;;;17.90;67.70;;;;;;5027046;28;21003;-68
2022/05/15 02:11:00;;;;;;;4.53;4.23;;;17.80;67.70;;;;;;4990310;28;20839;-70
2022/05/15 02:13:26;;;;;;;7.47;4.37;;;17.80;67.80;;;;;;5014354;28;20455;-68
2022/05/15 02:15:52;;;;;;;5.57;5.13;;;17.80;67.80;;;;;;5030673;28;20631;-68
2022/05/15 02:18:18;;;;;;;4.80;4.40;;;17.70;67.70;;;;;;5030501;28;20459;-69
2022/05/15 02:20:44;;;;;;;7.93;4.40;;;17.70;67.90;;;;;;5014393;28;20497;-68
2022/05/15 02:23:11;;;;;;;4.53;4.23;;;17.70;68.20;;;;;;4995608;28;20232;-67
2022/05/15 02:25:38;;;;;;;4.70;4.13;;;17.70;68.30;;;;;;5005457;28;20555;-68
2022/05/15 02:28:05;;;;;;;8.77;4.87;;;17.70;68.20;;;;;;5005845;28;20460;-68
2022/05/15 02:30:30;;;;;;;4.90;4.50;;;17.60;68.10;;;;;;5028616;28;20455;-67
2022/05/15 02:32:56;;;;;;;4.70;4.17;;;17.60;68.60;;;;;;5020943;28;20872;-69
2022/05/15 02:35:22;;;;;;;7.13;5.30;;;17.60;68.70;;;;;;5014247;28;20224;-68
2022/05/15 02:37:48;;;;;;;5.37;4.70;;;17.60;68.70;;;;;;5013610;28;20232;-69
2022/05/15 02:40:18;;;;;;;6.03;4.37;;;17.50;68.50;;;;;;5030821;28;20293;-68
2022/05/15 02:42:44;;;;;;;5.37;4.87;;;17.50;68.80;;;;;;5011081;28;20559;-68
2022/05/15 02:45:11;;;;;;;5.10;4.60;;;17.50;68.70;;;;;;5030023;28;21018;-67
2022/05/15 02:47:37;;;;;;;6.40;5.80;;;17.40;69.10;;;;;;5020408;28;21131;-68
2022/05/15 02:52:48;;;;;;;5.13;4.70;;;17.40;69.20;;;;;;5030345;28;20513;-67
2022/05/15 02:55:15;;;;;;;5.70;3.93;;;17.40;69.30;;;;;;5014007;28;20451;-67
2022/05/15 02:57:42;;;;;;;4.77;4.37;;;17.30;69.40;;;;;;5029860;28;20216;-68
2022/05/15 03:00:10;;;;;;;4.90;4.50;;;17.30;69.20;;;;;;5030214;28;20454;-66
2022/05/15 03:02:37;;;;;;;4.70;4.30;;;17.30;69.30;;;;;;5016062;28;20522;-67
2022/05/15 03:05:04;;;;;;;5.17;4.70;;;17.30;69.20;;;;;;5029374;28;20442;-67
2022/05/15 03:07:31;;;;;;;5.43;4.70;;;17.30;69.60;;;;;;5025528;28;20468;-68
2022/05/15 03:09:56;;;;;;;6.03;4.73;;;17.20;69.60;;;;;;5013549;28;20469;-68
2022/05/15 03:12:22;;;;;;;5.73;5.23;;;17.20;69.70;;;;;;5014216;28;20459;-68
2022/05/15 03:14:48;;;;;;;5.13;4.70;;;17.20;69.70;;;;;;5030991;28;20459;-67
2022/05/15 03:17:16;;;;;;;5.20;4.70;;;17.10;69.60;;;;;;5013197;28;20228;-69
2022/05/15 03:19:43;;;;;;;5.10;4.60;;;17.10;69.80;;;;;;5030197;28;20371;-68
2022/05/15 03:22:09;;;;;;;6.20;5.30;;;17.00;70.20;;;;;;5012983;28;20468;-68
2022/05/15 03:24:35;;;;;;;5.27;4.73;;;17.00;70.30;;;;;;5012992;28;20462;-68
2022/05/15 03:27:01;;;;;;;5.33;4.93;;;17.00;70.60;;;;;;5028195;28;20235;-68
2022/05/15 03:29:27;;;;;;;4.47;4.17;;;17.00;70.20;;;;;;5009986;28;20511;-67
2022/05/15 03:31:53;;;;;;;6.17;4.37;;;17.00;70.40;;;;;;5029105;28;20455;-68
2022/05/15 03:34:19;;;;;;;4.83;4.40;;;17.00;70.60;;;;;;5013066;28;20454;-67
2022/05/15 03:36:47;;;;;;;5.37;4.87;;;16.90;70.60;;;;;;5029391;28;20455;-68
2022/05/15 03:39:14;;;;;;;5.80;5.33;;;16.90;70.40;;;;;;5029332;28;20240;-68
2022/05/15 03:41:41;;;;;;;5.93;5.43;;;16.90;70.70;;;;;;5018790;28;20486;-68
2022/05/15 03:44:08;;;;;;;5.43;4.60;;;16.80;70.70;;;;;;5027218;28;20883;-67
2022/05/15 03:46:34;;;;;;;4.93;4.53;;;16.80;70.90;;;;;;5013314;28;20474;-68
2022/05/15 03:49:00;;;;;;;7.20;4.37;;;16.80;70.90;;;;;;5037659;28;20459;-67
2022/05/15 03:51:26;;;;;;;6.27;4.67;;;16.80;70.60;;;;;;5010261;28;20461;-67
2022/05/15 03:53:53;;;;;;;4.53;4.13;;;16.80;71.10;;;;;;5012286;28;20451;-68
2022/05/15 03:56:49;;;;;;;6.30;4.50;;;16.80;71.10;;;;;;5029883;28;20467;-67
2022/05/15 03:59:07;;;;;;;5.30;4.80;;;16.70;71.10;;;;;;5009825;28;20444;-67
2022/05/15 04:01:32;;;;;;;5.00;4.50;;;16.70;71.20;;;;;;5016565;28;20505;-68
2022/05/15 04:03:59;;;;;;;5.07;4.67;;;16.70;71.40;;;;;;5024518;28;20447;-68
2022/05/15 04:06:25;;;;;;;7.73;4.60;;;16.70;71.50;;;;;;5029844;28;20231;-67
2022/05/15 04:08:51;;;;;;;4.90;4.43;;;16.70;71.60;;;;;;5029491;28;20479;-68
2022/05/15 04:11:17;;;;;;;5.43;4.93;;;16.60;71.50;;;;;;5029485;28;20890;-68
2022/05/15 04:13:44;;;;;;;4.10;3.80;;;16.60;71.50;;;;;;5028527;28;20216;-69
2022/05/15 04:16:10;;;;;;;6.67;4.97;;;16.60;71.60;;;;;;5037493;28;20455;-67
2022/05/15 04:18:36;;;;;;;5.10;4.63;;;16.60;71.70;;;;;;5021521;28;20466;-69
2022/05/15 04:21:02;;;;;;;7.53;4.90;;;16.60;71.90;;;;;;5028471;28;20440;-67
2022/05/15 04:23:28;;;;;;;4.50;4.17;;;16.60;72.10;;;;;;5012355;28;20216;-70
2022/05/15 04:25:53;;;;;;;5.20;4.60;;;16.50;72.10;;;;;;5027779;28;20589;-67
2022/05/15 04:28:20;;;;;;;5.57;5.10;;;16.60;72.30;;;;;;5006525;28;20229;-68
2022/05/15 04:30:46;;;;;;;9.17;5.00;;;16.60;72.70;;;;;;5033672;28;20770;-68
2022/05/15 04:33:11;;;;;;;7.57;4.80;;;16.50;72.60;;;;;;5028733;28;20485;-68
2022/05/15 04:35:37;;;;;;;8.60;5.37;;;16.50;72.40;;;;;;5012127;28;20671;-67
2022/05/15 04:38:03;;;;;;;5.37;4.87;;;16.50;72.70;;;;;;5028067;28;20224;-70
2022/05/15 04:40:28;;;;;;;6.87;4.90;;;16.50;73.30;;;;;;5029040;28;20237;-67
2022/05/15 04:42:54;;;;;;;5.13;4.63;;;16.50;73.30;;;;;;5025640;28;20220;-67
2022/05/15 04:45:19;;;;;;;4.67;4.10;;;16.50;72.80;;;;;;5028138;28;20638;-68
2022/05/15 04:47:46;;;;;;;4.90;4.43;;;16.50;73.30;;;;;;5014397;28;20256;-68
2022/05/15 04:50:14;;;;;;;4.93;4.43;;;16.50;73.30;;;;;;5005648;28;20296;-68
2022/05/15 04:52:39;;;;;;;5.43;4.90;;;16.50;73.60;;;;;;5020128;28;20451;-68
2022/05/15 04:55:06;;;;;;;5.40;5.00;;;16.50;73.30;;;;;;5027974;28;20877;-68
2022/05/15 04:57:32;;;;;;;5.47;4.67;;;16.50;73.20;;;;;;5028343;28;20320;-68
2022/05/15 04:59:57;;;;;;;5.67;4.27;;;16.50;73.70;;;;;;5031905;28;20505;-68
2022/05/15 05:02:23;;;;;;;6.77;5.23;;;16.50;73.50;;;;;;5019030;28;20468;-66
2022/05/15 05:04:49;;;;;;;8.77;4.70;;;16.50;73.60;;;;;;5027273;28;20222;-67
2022/05/15 05:07:15;;;;;;;4.90;4.50;;;16.50;73.80;;;;;;5029528;28;20263;-67
2022/05/15 05:09:40;;;;;;;5.23;4.53;;;16.50;74.30;;;;;;5028107;28;20225;-67
2022/05/15 05:12:07;;;;;;;4.93;4.50;;;16.50;73.90;;;;;;5035106;28;20223;-67
2022/05/15 05:14:32;;;;;;;4.63;4.30;;;16.60;74.50;;;;;;5024063;28;20239;-67
2022/05/15 05:16:58;;;;;;;4.67;4.13;;;16.60;75.20;;;;;;5025866;28;20534;-68
2022/05/15 05:19:24;;;;;;;6.20;5.10;;;16.60;75.00;;;;;;5025103;28;20692;-69
2022/05/15 05:21:50;;;;;;;5.80;5.07;;;16.70;75.10;;;;;;5021472;28;20208;-67
2022/05/15 05:24:15;;;;;;;4.33;3.93;;;16.70;75.70;;;;;;5007554;28;20244;-67
2022/05/15 05:26:41;;;;;;;10.13;4.90;;;16.70;76.20;;;;;;5023078;28;20221;-67
2022/05/15 05:29:07;;;;;;;4.83;4.40;;;16.70;75.40;;;;;;5028029;28;20251;-68
2022/05/15 05:31:33;;;;;;;4.90;4.50;;;16.70;76.30;;;;;;5004346;28;20231;-68
2022/05/15 05:33:59;;;;;;;5.40;4.03;;;16.80;75.80;;;;;;5028719;28;20369;-67
2022/05/15 05:36:24;;;;;;;3.83;3.53;;;16.80;75.50;;;;;;5029314;28;20543;-69
2022/05/15 05:38:50;;;;;;;4.70;4.30;;;16.80;75.50;;;;;;5027500;28;20280;-67
2022/05/15 05:41:16;;;;;;;4.17;3.80;;;16.80;75.60;;;;;;5029589;28;20224;-67
2022/05/15 05:43:42;;;;;;;4.63;3.17;;;16.90;75.90;;;;;;5010496;28;20701;-67
2022/05/15 05:46:07;;;;;;;5.57;4.03;;;16.90;76.20;;;;;;5027875;28;20219;-67
2022/05/15 05:48:33;;;;;;;4.00;3.60;;;16.90;76.10;;;;;;5027407;28;20313;-68
2022/05/15 05:50:59;;;;;;;10.00;5.57;;;17.00;76.00;;;;;;5027841;28;20723;-67
2022/05/15 05:53:25;;;;;;;4.20;3.80;;;17.00;76.30;;;;;;5028149;28;20224;-66
2022/05/15 05:55:51;;;;;;;6.13;4.60;;;17.00;77.50;;;;;;5028545;28;20459;-67
2022/05/15 05:58:16;;;;;;;4.33;3.87;;;17.10;76.70;;;;;;5028334;28;20225;-68
2022/05/15 06:00:42;;;;;;;5.00;4.00;;;17.10;78.00;;;;;;5029661;28;20240;-66
2022/05/15 06:05:52;;;;;;;4.53;4.13;;;17.20;77.70;;;;;;5019957;28;20764;-68
2022/05/15 06:08:19;;;;;;;5.70;3.80;;;17.20;78.10;;;;;;5019268;28;20491;-67
2022/05/15 06:10:45;;;;;;;7.07;3.77;;;17.30;78.60;;;;;;5032293;28;20235;-67
2022/05/15 06:13:11;;;;;;;7.80;4.10;;;17.30;78.80;;;;;;5030776;28;20451;-66
2022/05/15 06:15:37;;;;;;;5.30;4.20;;;17.30;78.50;;;;;;5024596;28;20776;-67
2022/05/15 06:18:05;;;;;;;3.90;3.60;;;17.40;78.60;;;;;;5028891;28;20235;-68
2022/05/15 06:20:31;;;;;;;7.20;4.10;;;17.50;79.20;;;;;;5032505;28;20455;-71
2022/05/15 06:22:57;;;;;;;5.17;4.10;;;17.50;79.50;;;;;;5030886;28;20482;-69
2022/05/15 06:25:23;;;;;;;4.60;4.17;;;17.60;80.10;;;;;;5021458;28;20490;-72
2022/05/15 06:27:49;;;;;;;4.03;3.73;;;17.70;80.40;;;;;;5030739;28;20668;-67
2022/05/15 06:30:16;;;;;;;6.03;4.03;;;17.70;80.70;;;;;;5032551;28;20527;-68
2022/05/15 06:32:42;;;;;;;7.00;4.07;;;17.80;81.00;;;;;;5030917;28;20307;-68
2022/05/15 06:35:10;;;;;;;4.07;3.77;;;17.90;81.20;;;;;;5030959;28;20463;-67
2022/05/15 06:37:36;;;;;;;5.33;4.23;;;18.00;81.10;;;;;;5031830;28;20474;-68
2022/05/15 06:40:03;;;;;;;5.13;4.67;;;18.10;81.60;;;;;;5030507;28;20963;-66
2022/05/15 06:42:29;;;;;;;6.60;4.60;;;18.20;81.60;;;;;;5031012;28;20708;-66
2022/05/15 06:44:56;;;;;;;5.63;4.27;;;18.20;82.00;;;;;;5029913;28;20451;-69
2022/05/15 06:47:23;;;;;;;5.17;4.40;;;18.20;82.30;;;;;;5020853;28;20476;-67
2022/05/15 06:49:49;;;;;;;4.40;4.00;;;18.30;82.50;;;;;;5030764;28;20708;-67
2022/05/15 06:52:14;;;;;;;4.53;3.97;;;18.40;82.40;;;;;;5030638;28;20463;-66
2022/05/15 06:54:40;;;;;;;4.03;3.73;;;18.50;82.10;;;;;;5030061;28;20754;-67
2022/05/15 06:59:51;;;;;;;4.40;4.10;;;18.60;81.90;;;;;;5031114;28;20220;-68
2022/05/15 07:02:16;;;;;;;12.07;5.73;;;18.60;82.30;;;;;;5031155;28;20485;-67
2022/05/15 07:04:42;;;;;;;6.47;4.50;;;18.70;82.80;;;;;;5029018;28;20236;-68
2022/05/15 07:07:08;;;;;;;5.87;5.40;;;18.80;82.40;;;;;;5029708;28;20233;-69
2022/05/15 07:09:35;;;;;;;4.60;4.30;;;18.90;82.20;;;;;;5029875;28;20208;-69
2022/05/15 07:12:03;;;;;;;4.77;4.37;;;19.00;82.00;;;;;;5029309;28;20837;-67
2022/05/15 07:14:29;;;;;;;6.73;4.07;;;19.10;81.90;;;;;;5030760;28;20463;-68
2022/05/15 07:16:55;;;;;;;3.93;3.67;;;19.20;81.70;;;;;;5030554;28;20509;-67
2022/05/15 07:19:21;;;;;;;4.80;4.30;;;19.30;82.10;;;;;;5017622;28;20854;-67
2022/05/15 07:21:46;;;;;;;6.80;4.00;;;19.40;82.00;;;;;;5027531;28;20734;-68
2022/05/15 07:24:12;;;;;;;4.70;4.30;;;19.40;81.80;;;;;;5028445;28;20232;-65
2022/05/15 07:26:44;;;;;;;4.53;4.13;;;19.50;81.70;;;;;;5022911;28;20221;-67
2022/05/15 07:29:09;;;;;;;4.40;4.00;;;19.60;81.50;;;;;;5030593;28;20232;-70
2022/05/15 07:31:35;;;;;;;7.53;4.70;;;19.70;81.50;;;;;;5031435;28;20455;-67
2022/05/15 07:34:01;;;;;;;5.07;4.57;;;19.80;81.60;;;;;;5028643;28;20775;-70
2022/05/15 07:36:26;;;;;;;4.40;4.00;;;19.80;81.20;;;;;;5022205;28;20217;-70
2022/05/15 07:38:52;;;;;;;4.57;4.07;;;19.90;81.30;;;;;;5025265;28;20271;-66
2022/05/15 07:41:18;;;;;;;4.77;4.27;;;20.00;81.40;;;;;;5023971;28;20499;-67
2022/05/15 07:43:44;;;;;;;5.43;4.10;;;20.10;81.20;;;;;;5038520;28;20215;-67
2022/05/15 07:46:10;;;;;;;5.77;4.07;;;20.20;81.20;;;;;;5020658;28;20296;-67
2022/05/15 07:48:36;;;;;;;5.43;4.20;;;20.30;80.70;;;;;;5018462;28;20463;-69
2022/05/15 07:51:02;;;;;;;4.27;3.90;;;20.30;80.80;;;;;;5021236;28;20676;-67
2022/05/15 07:53:28;;;;;;;4.73;4.17;;;20.30;80.70;;;;;;5028165;28;20614;-72
2022/05/15 07:55:55;;;;;;;8.63;4.40;;;20.30;80.40;;;;;;5022918;28;20972;-69
2022/05/15 07:58:20;;;;;;;8.33;4.00;;;20.40;80.30;;;;;;5028522;28;20772;-70
2022/05/15 08:00:46;;;;;;;4.03;3.37;;;20.50;80.10;;;;;;5028063;28;20546;-71
2022/05/15 08:03:13;;;;;;;5.53;4.47;;;20.50;80.30;;;;;;5043311;28;20696;-71
2022/05/15 08:08:24;;;;;;;6.10;3.87;;;20.60;80.00;;;;;;5025759;28;20464;-71
2022/05/15 08:10:50;;;;;;;8.90;4.90;;;20.70;80.10;;;;;;5024440;28;20449;-70
2022/05/15 08:13:19;;;;;;;4.57;4.17;;;20.80;80.30;;;;;;5028839;28;20221;-67
2022/05/15 08:15:45;;;;;;;4.83;4.10;;;20.90;80.40;;;;;;5010933;28;20583;-68
2022/05/15 08:23:53;;;;;;;4.17;3.80;;;21.10;80.10;;;;;;5023378;28;20462;-68
2022/05/15 08:26:19;;;;;;;4.20;3.60;;;21.10;80.00;;;;;;5026715;28;20474;-69
2022/05/15 08:28:46;;;;;;;4.77;3.73;;;21.20;80.40;;;;;;5029083;28;20467;-70
2022/05/15 08:31:13;;;;;;;5.80;4.47;;;21.30;80.70;;;;;;5028211;28;20535;-69
2022/05/15 08:33:39;;;;;;;7.80;4.67;;;21.40;80.70;;;;;;5029130;28;20489;-72
2022/05/15 08:36:07;;;;;;;5.83;4.43;;;21.50;80.40;;;;;;5028084;28;20981;-71
2022/05/15 08:38:34;;;;;;;4.30;3.77;;;21.60;80.40;;;;;;5019896;28;20539;-70
2022/05/15 08:41:15;;;;;;;7.27;4.67;;;21.70;80.40;;;;;;5028938;28;20463;-67
2022/05/15 08:43:55;;;;;;;6.30;4.30;;;21.80;80.30;;;;;;5025535;28;20522;-71
2022/05/15 08:46:48;;;;;;;5.30;4.00;;;21.90;80.30;;;;;;5021269;28;20805;-70
2022/05/15 08:49:18;;;;;;;5.73;3.97;;;22.00;80.40;;;;;;5021071;28;20459;-70
2022/05/15 08:51:55;;;;;;;4.47;4.07;;;22.10;80.20;;;;;;5026856;28;20454;-68
2022/05/15 08:54:21;;;;;;;5.30;3.80;;;22.10;80.00;;;;;;5028971;28;20521;-69
2022/05/15 08:56:50;;;;;;;5.20;4.10;;;22.20;79.50;;;;;;5029648;28;20463;-70
2022/05/15 08:59:29;;;;;;;4.17;3.77;;;22.30;79.40;;;;;;5024891;28;20866;-71
2022/05/15 09:01:58;;;;;;;4.23;3.80;;;22.30;79.90;;;;;;5023762;28;20470;-71
2022/05/15 09:04:26;;;;;;;5.90;4.07;;;22.30;78.50;;;;;;5025635;28;20454;-70
2022/05/15 09:07:09;;;;;;;4.03;3.63;;;22.50;79.10;;;;;;5015006;28;20995;-70
2022/05/15 09:09:45;;;;;;;4.97;4.47;;;22.60;78.90;;;;;;5028228;28;20512;-70
2022/05/15 09:12:27;;;;;;;4.30;3.90;;;22.70;79.00;;;;;;5029134;28;20453;-69
2022/05/15 09:15:00;;;;;;;4.70;4.13;;;22.80;78.80;;;;;;5026050;28;20459;-70
2022/05/15 09:17:38;;;;;;;4.63;4.23;;;22.90;78.20;;;;;;5028617;28;20466;-74
2022/05/15 09:20:11;;;;;;;4.97;3.80;;;23.10;78.80;;;;;;5025916;28;20447;-71
2022/05/15 09:22:53;;;;;;;3.63;3.33;;;23.20;78.20;;;;;;5028617;28;21138;-69
2022/05/15 09:25:22;;;;;;;4.33;3.90;;;23.20;78.70;;;;;;5011059;28;20454;-67
2022/05/15 09:28:07;;;;;;;4.60;4.20;;;23.30;79.30;;;;;;5023808;28;20478;-70
2022/05/15 09:30:42;;;;;;;4.57;4.17;;;23.40;78.90;;;;;;5028574;28;20455;-68
2022/05/15 09:33:30;;;;;;;5.93;3.63;;;23.50;78.50;;;;;;5021552;28;20452;-68
2022/05/15 09:36:22;;;;;;;4.13;3.83;;;23.50;77.90;;;;;;5011945;28;20527;-69
2022/05/15 09:38:51;;;;;;;5.10;4.27;;;23.60;77.90;;;;;;5022228;28;20451;-69
2022/05/15 09:44:01;;;;;;;5.70;3.90;;;23.70;77.70;;;;;;5026280;28;23123;-69
2022/05/15 09:46:28;;;;;;;4.50;4.20;;;23.80;77.10;;;;;;5031444;28;20458;-69
2022/05/15 09:49:03;;;;;;;4.03;3.73;;;23.80;77.00;;;;;;5030162;28;20234;-68
2022/05/15 09:51:40;;;;;;;3.70;3.40;;;23.80;76.80;;;;;;5032770;28;20792;-69
2022/05/15 09:54:07;;;;;;;6.27;3.80;;;23.90;77.20;;;;;;5021848;28;20449;-68
2022/05/15 09:56:34;;;;;;;4.00;3.67;;;24.10;76.70;;;;;;5030061;28;20443;-68
2022/05/15 09:59:06;;;;;;;4.00;3.70;;;24.20;76.50;;;;;;5043537;28;20487;-68
2022/05/15 10:01:33;;;;;;;3.67;3.47;;;24.30;76.60;;;;;;5026990;28;20466;-69
2022/05/15 10:04:01;;;;;;;5.50;3.23;;;24.40;76.70;;;;;;5022356;28;20436;-67
2022/05/15 10:06:33;;;;;;;3.27;2.97;;;24.50;76.20;;;;;;5014673;28;20498;-68
2022/05/15 10:09:07;;;;;;;3.37;3.17;;;24.30;75.00;;;;;;5031878;28;20487;-68
2022/05/15 10:11:35;;;;;;;4.03;3.73;;;24.30;76.10;;;;;;5032759;28;20461;-69
2022/05/15 10:14:02;;;;;;;5.50;3.57;;;24.30;75.80;;;;;;5027523;28;20581;-69
2022/05/15 10:16:33;;;;;;;5.53;4.60;;;24.50;76.10;;;;;;5023566;28;20458;-70
2022/05/15 10:19:13;;;;;;;3.33;3.03;;;24.60;75.20;;;;;;5012385;28;20462;-69
2022/05/15 10:21:42;;;;;;;3.63;3.17;;;24.80;75.50;;;;;;5007565;28;20486;-68
2022/05/15 10:24:23;;;;;;;3.80;3.50;;;25.00;75.10;;;;;;5028741;28;20462;-68
2022/05/15 10:27:14;;;;;;;3.63;3.30;;;25.10;75.20;;;;;;5027115;28;20475;-69
2022/05/15 10:30:05;;;;;;;4.30;3.90;;;25.30;75.20;;;;;;5010788;28;20454;-71
2022/05/15 10:32:46;;;;;;;5.20;3.47;;;25.40;75.20;;;;;;5030095;28;20504;-69
2022/05/15 10:35:15;;;;;;;8.03;3.90;;;25.40;74.20;;;;;;5014110;28;20510;-68
2022/05/15 10:38:01;;;;;;;3.97;3.50;;;25.40;73.80;;;;;;5030104;28;20512;-68
2022/05/15 10:40:48;;;;;;;4.23;3.83;;;25.40;73.30;;;;;;5029859;28;20458;-69
2022/05/15 10:43:39;;;;;;;5.73;3.40;;;25.40;74.00;;;;;;5026779;28;20545;-68
2022/05/15 10:46:43;;;;;;;6.33;3.50;;;25.50;73.60;;;;;;5021946;28;20446;-69
2022/05/15 10:49:18;;;;;;;4.07;3.77;;;25.70;72.80;;;;;;5026848;28;20877;-69
2022/05/15 10:51:44;;;;;;;5.30;3.87;;;25.80;73.00;;;;;;5025230;28;20544;-70
2022/05/15 10:57:21;;;;;;;3.93;3.53;;;25.80;71.80;;;;;;5028015;28;20638;-67
2022/05/15 11:00:08;;;;;;;3.67;3.40;;;25.80;72.10;;;;;;5030004;28;20439;-69
2022/05/15 11:02:52;;;;;;;3.53;3.20;;;26.00;71.20;;;;;;5021743;28;20446;-72
2022/05/15 11:05:23;;;;;;;4.77;3.50;;;26.00;71.00;;;;;;5023675;28;20478;-72
2022/05/15 11:08:24;;;;;;;4.63;3.43;;;26.10;70.80;;;;;;5026770;28;20550;-69
2022/05/15 11:11:01;;;;;;;4.00;3.30;;;26.20;70.40;;;;;;5010338;28;20985;-69
2022/05/15 11:13:56;;;;;;;3.00;2.80;;;26.40;69.70;;;;;;5010056;28;20523;-68
2022/05/15 11:16:31;;;;;;;4.07;3.70;;;26.50;68.60;;;;;;5020790;28;20985;-68
2022/05/15 11:19:29;;;;;;;2.77;2.67;;;26.60;68.00;;;;;;5028835;28;20525;-68
2022/05/15 11:22:04;;;;;;;3.70;2.27;;;26.50;65.60;;;;;;5035216;28;20519;-68
2022/05/15 11:24:54;;;;;;;3.03;2.83;;;26.50;64.90;;;;;;5008507;28;20451;-68
2022/05/15 11:27:48;;;;;;;3.83;3.20;;;26.50;64.50;;;;;;5024652;28;20471;-68
2022/05/15 11:30:28;;;;;;;3.80;2.97;;;26.60;65.70;;;;;;5026221;28;20468;-68
2022/05/15 11:32:53;;;;;;;4.80;3.20;;;26.70;65.50;;;;;;5023580;28;20474;-68
2022/05/15 11:35:20;;;;;;;3.60;3.30;;;26.60;64.80;;;;;;5023231;28;20950;-68
2022/05/15 11:38:04;;;;;;;6.40;4.17;;;26.60;65.00;;;;;;5029940;28;20228;-67
2022/05/15 11:40:46;;;;;;;3.37;3.07;;;26.70;64.60;;;;;;5028322;28;20459;-70
2022/05/15 11:43:27;;;;;;;3.70;3.50;;;26.80;65.20;;;;;;5023539;28;20456;-67
2022/05/15 11:45:58;;;;;;;3.43;3.23;;;26.80;65.20;;;;;;5025592;28;20223;-69
2022/05/15 11:48:30;;;;;;;3.23;3.03;;;26.90;65.00;;;;;;5024578;28;21010;-68
2022/05/15 11:50:59;;;;;;;4.47;3.53;;;26.90;65.80;;;;;;5026204;28;20458;-69
2022/05/15 11:53:37;;;;;;;3.70;3.40;;;27.00;64.90;;;;;;5026300;28;20450;-68
2022/05/15 11:56:20;;;;;;;4.67;3.80;;;27.00;65.00;;;;;;5010522;28;20439;-69
2022/05/15 11:58:58;;;;;;;3.83;3.43;;;27.00;64.00;;;;;;5041172;28;20455;-68
2022/05/15 12:01:24;;;;;;;4.17;3.87;;;27.00;63.90;;;;;;5020392;28;20228;-69
2022/05/15 12:03:57;;;;;;;3.33;3.13;;;27.20;64.40;;;;;;5019780;28;20446;-70
2022/05/15 12:06:50;;;;;;;3.87;3.57;;;27.30;63.30;;;;;;5025824;28;20578;-68
2022/05/15 12:09:20;;;;;;;5.20;4.80;;;27.30;62.60;;;;;;5027677;28;20220;-69
2022/05/15 12:11:51;;;;;;;5.60;5.17;;;27.20;62.10;;;;;;5024367;28;20239;-69
2022/05/15 12:14:29;;;;;;;3.93;3.63;;;27.20;61.50;;;;;;5024098;28;20315;-68
2022/05/15 12:17:22;;;;;;;5.90;3.93;;;27.20;61.80;;;;;;5022449;28;20443;-68
2022/05/15 12:19:49;;;;;;;4.97;3.00;;;27.10;61.60;;;;;;5040163;28;20892;-70
2022/05/15 12:22:17;;;;;;;4.27;3.77;;;27.10;62.30;;;;;;5004651;28;20459;-68
2022/05/15 12:24:48;;;;;;;3.97;3.67;;;27.20;61.80;;;;;;5021498;28;20951;-67
2022/05/15 12:27:20;;;;;;;3.20;3.00;;;27.40;61.70;;;;;;5025468;28;20227;-68
2022/05/15 12:29:58;;;;;;;4.73;3.47;;;27.50;62.30;;;;;;5029362;28;20228;-68
2022/05/15 12:33:00;;;;;;;3.63;3.33;;;27.60;62.00;;;;;;5028829;28;20252;-70
2022/05/15 12:35:37;;;;;;;2.60;2.40;;;27.70;61.60;;;;;;5004819;28;20332;-69
2022/05/15 12:38:11;;;;;;;3.57;3.10;;;27.60;60.90;;;;;;5040091;28;20228;-69
2022/05/15 12:40:42;;;;;;;3.80;3.60;;;27.60;61.00;;;;;;5026820;28;20234;-69
2022/05/15 12:43:25;;;;;;;3.50;2.60;;;27.60;60.50;;;;;;5027705;28;20220;-70
2022/05/15 12:45:50;;;;;;;2.93;2.73;;;27.40;59.70;;;;;;5038410;28;20224;-68
2022/05/15 12:48:19;;;;;;;2.65;2.45;;;27.50;60.00;;;;;;5019006;28;20228;-68
2022/05/15 12:51:16;;;;;;;3.03;2.77;;;27.60;60.90;;;;;;5028958;28;20215;-69
2022/05/15 12:53:48;;;;;;;3.00;2.23;;;27.50;59.70;;;;;;5022565;28;20266;-69
2022/05/15 12:56:22;;;;;;;2.60;2.50;;;27.40;59.60;;;;;;5027761;28;20277;-69
2022/05/15 12:58:55;;;;;;;4.30;3.08;;;27.60;59.70;;;;;;5025620;28;20780;-70
2022/05/15 13:01:24;;;;;;;2.67;2.50;;;27.80;59.10;;;;;;5023140;28;20227;-68
2022/05/15 13:03:53;;;;;;;3.35;2.50;;;27.80;59.30;;;;;;5020257;28;20290;-71
2022/05/15 13:06:20;;;;;;;3.65;3.03;;;27.80;59.40;;;;;;5011709;28;20227;-67
2022/05/15 13:08:50;;;;;;;4.67;3.43;;;27.90;60.10;;;;;;5029809;28;20301;-69
2022/05/15 13:11:21;;;;;;;2.75;2.55;;;28.00;59.50;;;;;;5033319;28;20643;-70
2022/05/15 13:13:52;;;;;;;3.08;2.88;;;28.00;59.60;;;;;;5031270;28;20230;-69
2022/05/15 13:16:21;;;;;;;3.40;3.10;;;27.90;59.40;;;;;;5032712;28;20231;-69
2022/05/15 13:18:49;;;;;;;3.42;3.13;;;27.90;59.40;;;;;;5032291;28;20852;-68